sensor_id;sensor_type;location;lat;lon;timestamp;temperature;humidity
26278;DHT22;14000;52.056;8.510;2023-04-24T00:00:55;11.20;99.90
26278;DHT22;14000;52.056;8.510;2023-04-24T00:03:24;11.20;99.90
26278;DHT22;14000;52.056;8.510;2023-04-24T00:05:50;11.20;99.90
26278;DHT22;14000;52.056;8.510;2023-04-24T00:08:16;11.10;99.90
26278;DHT22;14000;52.056;8.510;2023-04-24T00:10:42;11.10;99.90
26278;DHT22;14000;52.056;8.510;2023-04-24T00:13:08;11.00;99.90
26278;DHT22;14000;52.056;8.510;2023-04-24T00:15:34;11.00;99.90
26278;DHT22;14000;52.056;8.510;2023-04-24T00:17:59;10.90;99.90
26278;DHT22;14000;52.056;8.510;2023-04-24T00:20:27;11.00;99.90
26278;DHT22;14000;52.056;8.510;2023-04-24T00:22:55;11.00;99.90
26278;DHT22;14000;52.056;8.510;2023-04-24T00:25:20;11.00;99.90
26278;DHT22;14000;52.056;8.510;2023-04-24T00:27:46;10.90;99.90
26278;DHT22;14000;52.056;8.510;2023-04-24T00:30:11;10.90;99.90
26278;DHT22;14000;52.056;8.510;2023-04-24T00:32:37;10.90;99.90
26278;DHT22;14000;52.056;8.510;2023-04-24T00:35:03;10.90;99.90
26278;DHT22;14000;52.056;8.510;2023-04-24T00:37:29;10.90;99.90
26278;DHT22;14000;52.056;8.510;2023-04-24T00:39:54;10.90;99.90
26278;DHT22;14000;52.056;8.510;2023-04-24T00:42:20;10.90;99.90
26278;DHT22;14000;52.056;8.510;2023-04-24T00:44:46;10.90;99.90
26278;DHT22;14000;52.056;8.510;2023-04-24T00:47:12;10.90;99.90
26278;DHT22;14000;52.056;8.510;2023-04-24T00:49:38;10.90;99.90
26278;DHT22;14000;52.056;8.510;2023-04-24T00:52:04;10.90;99.90
26278;DHT22;14000;52.056;8.510;2023-04-24T00:54:34;11.00;99.90
26278;DHT22;14000;52.056;8.510;2023-04-24T00:57:00;11.00;99.90
26278;DHT22;14000;52.056;8.510;2023-04-24T00:59:26;11.00;99.90
26278;DHT22;14000;52.056;8.510;2023-04-24T01:01:53;11.00;99.90
26278;DHT22;14000;52.056;8.510;2023-04-24T01:04:18;11.00;99.90
26278;DHT22;14000;52.056;8.510;2023-04-24T01:06:45;11.00;99.90
26278;DHT22;14000;52.056;8.510;2023-04-24T01:09:12;11.00;99.90
26278;DHT22;14000;52.056;8.510;2023-04-24T01:11:38;11.10;99.90
26278;DHT22;14000;52.056;8.510;2023-04-24T01:14:03;11.10;99.90
26278;DHT22;14000;52.056;8.510;2023-04-24T01:16:29;11.10;99.90
26278;DHT22;14000;52.056;8.510;2023-04-24T01:18:54;11.10;99.90
26278;DHT22;14000;52.056;8.510;2023-04-24T01:21:21;11.10;99.90
26278;DHT22;14000;52.056;8.510;2023-04-24T01:23:47;11.10;99.90
26278;DHT22;14000;52.056;8.510;2023-04-24T01:26:14;11.10;99.90
26278;DHT22;14000;52.056;8.510;2023-04-24T01:28:40;11.10;99.90
26278;DHT22;14000;52.056;8.510;2023-04-24T01:31:06;11.10;99.90
26278;DHT22;14000;52.056;8.510;2023-04-24T01:33:32;11.10;99.90
26278;DHT22;14000;52.056;8.510;2023-04-24T01:35:58;11.10;99.90
26278;DHT22;14000;52.056;8.510;2023-04-24T01:38:23;11.00;99.90
26278;DHT22;14000;52.056;8.510;2023-04-24T01:40:50;11.00;99.90
26278;DHT22;14000;52.056;8.510;2023-04-24T01:43:16;11.10;99.90
26278;DHT22;14000;52.056;8.510;2023-04-24T01:45:42;11.00;99.90
26278;DHT22;14000;52.056;8.510;2023-04-24T01:48:07;11.00;99.90
26278;DHT22;14000;52.056;8.510;2023-04-24T01:50:33;11.00;99.90
26278;DHT22;14000;52.056;8.510;2023-04-24T01:52:59;10.90;99.90
26278;DHT22;14000;52.056;8.510;2023-04-24T01:55:24;10.90;99.90
26278;DHT22;14000;52.056;8.510;2023-04-24T01:57:52;10.80;99.90
26278;DHT22;14000;52.056;8.510;2023-04-24T02:00:18;10.80;99.90
26278;DHT22;14000;52.056;8.510;2023-04-24T02:02:44;10.70;99.90
26278;DHT22;14000;52.056;8.510;2023-04-24T02:05:10;10.70;99.90
26278;DHT22;14000;52.056;8.510;2023-04-24T02:07:36;10.70;99.90
26278;DHT22;14000;52.056;8.510;2023-04-24T02:10:02;10.70;99.90
26278;DHT22;14000;52.056;8.510;2023-04-24T02:12:29;10.60;99.90
26278;DHT22;14000;52.056;8.510;2023-04-24T02:14:55;10.60;99.90
26278;DHT22;14000;52.056;8.510;2023-04-24T02:17:20;10.60;99.90
26278;DHT22;14000;52.056;8.510;2023-04-24T02:19:46;10.50;99.90
26278;DHT22;14000;52.056;8.510;2023-04-24T02:22:12;10.50;99.90
26278;DHT22;14000;52.056;8.510;2023-04-24T02:24:38;10.50;99.90
26278;DHT22;14000;52.056;8.510;2023-04-24T02:27:04;10.50;99.90
26278;DHT22;14000;52.056;8.510;2023-04-24T02:29:30;10.40;99.90
26278;DHT22;14000;52.056;8.510;2023-04-24T02:31:56;10.40;99.90
26278;DHT22;14000;52.056;8.510;2023-04-24T02:34:22;10.40;99.90
26278;DHT22;14000;52.056;8.510;2023-04-24T02:36:48;10.30;99.90
26278;DHT22;14000;52.056;8.510;2023-04-24T02:39:14;10.30;99.90
26278;DHT22;14000;52.056;8.510;2023-04-24T02:41:42;10.20;99.90
26278;DHT22;14000;52.056;8.510;2023-04-24T02:44:08;10.20;99.90
26278;DHT22;14000;52.056;8.510;2023-04-24T02:46:33;10.20;99.90
26278;DHT22;14000;52.056;8.510;2023-04-24T02:48:59;10.10;99.90
26278;DHT22;14000;52.056;8.510;2023-04-24T02:51:24;10.10;99.90
26278;DHT22;14000;52.056;8.510;2023-04-24T02:53:50;10.10;99.90
26278;DHT22;14000;52.056;8.510;2023-04-24T02:56:16;10.10;99.90
26278;DHT22;14000;52.056;8.510;2023-04-24T02:58:41;10.10;99.90
26278;DHT22;14000;52.056;8.510;2023-04-24T03:01:07;10.10;99.90
26278;DHT22;14000;52.056;8.510;2023-04-24T03:03:35;10.10;99.90
26278;DHT22;14000;52.056;8.510;2023-04-24T03:06:01;10.00;99.90
26278;DHT22;14000;52.056;8.510;2023-04-24T03:08:27;10.00;99.90
26278;DHT22;14000;52.056;8.510;2023-04-24T03:10:52;10.10;99.90
26278;DHT22;14000;52.056;8.510;2023-04-24T03:13:18;10.10;99.90
26278;DHT22;14000;52.056;8.510;2023-04-24T03:15:44;10.10;99.90
26278;DHT22;14000;52.056;8.510;2023-04-24T03:18:10;10.20;99.90
26278;DHT22;14000;52.056;8.510;2023-04-24T03:20:36;10.30;99.90
26278;DHT22;14000;52.056;8.510;2023-04-24T03:23:02;10.30;99.90
26278;DHT22;14000;52.056;8.510;2023-04-24T03:25:28;10.30;99.90
26278;DHT22;14000;52.056;8.510;2023-04-24T03:27:54;10.30;99.90
26278;DHT22;14000;52.056;8.510;2023-04-24T03:30:20;10.40;99.90
26278;DHT22;14000;52.056;8.510;2023-04-24T03:32:45;10.40;99.90
26278;DHT22;14000;52.056;8.510;2023-04-24T03:35:11;10.40;99.90
26278;DHT22;14000;52.056;8.510;2023-04-24T03:37:36;10.40;99.90
26278;DHT22;14000;52.056;8.510;2023-04-24T03:40:02;10.40;99.90
26278;DHT22;14000;52.056;8.510;2023-04-24T03:42:28;10.40;99.90
26278;DHT22;14000;52.056;8.510;2023-04-24T03:44:54;10.40;99.90
26278;DHT22;14000;52.056;8.510;2023-04-24T03:47:19;10.50;99.90
26278;DHT22;14000;52.056;8.510;2023-04-24T03:49:45;10.50;99.90
26278;DHT22;14000;52.056;8.510;2023-04-24T03:52:10;10.50;99.90
26278;DHT22;14000;52.056;8.510;2023-04-24T03:54:36;10.50;99.90
26278;DHT22;14000;52.056;8.510;2023-04-24T03:57:02;10.50;99.90
26278;DHT22;14000;52.056;8.510;2023-04-24T03:59:28;10.40;99.90
26278;DHT22;14000;52.056;8.510;2023-04-24T04:01:54;10.40;99.90
26278;DHT22;14000;52.056;8.510;2023-04-24T04:04:19;10.30;99.90
26278;DHT22;14000;52.056;8.510;2023-04-24T04:06:45;10.30;99.90
26278;DHT22;14000;52.056;8.510;2023-04-24T04:09:11;10.30;99.90
26278;DHT22;14000;52.056;8.510;2023-04-24T04:11:37;10.20;99.90
26278;DHT22;14000;52.056;8.510;2023-04-24T04:14:03;10.20;99.90
26278;DHT22;14000;52.056;8.510;2023-04-24T04:16:28;10.20;99.90
26278;DHT22;14000;52.056;8.510;2023-04-24T04:18:54;10.20;99.90
26278;DHT22;14000;52.056;8.510;2023-04-24T04:21:20;10.20;99.90
26278;DHT22;14000;52.056;8.510;2023-04-24T04:23:46;10.20;99.90
26278;DHT22;14000;52.056;8.510;2023-04-24T04:26:12;10.20;99.90
26278;DHT22;14000;52.056;8.510;2023-04-24T04:28:38;10.20;99.90
26278;DHT22;14000;52.056;8.510;2023-04-24T04:31:04;10.30;99.90
26278;DHT22;14000;52.056;8.510;2023-04-24T04:33:30;10.30;99.90
26278;DHT22;14000;52.056;8.510;2023-04-24T04:35:56;10.30;99.90
26278;DHT22;14000;52.056;8.510;2023-04-24T04:38:22;10.30;99.90
26278;DHT22;14000;52.056;8.510;2023-04-24T04:40:48;10.30;99.90
26278;DHT22;14000;52.056;8.510;2023-04-24T04:43:14;10.30;99.90
26278;DHT22;14000;52.056;8.510;2023-04-24T04:45:42;10.30;99.90
26278;DHT22;14000;52.056;8.510;2023-04-24T04:48:09;10.30;99.90
26278;DHT22;14000;52.056;8.510;2023-04-24T04:50:37;10.30;99.90
26278;DHT22;14000;52.056;8.510;2023-04-24T04:53:03;10.20;99.90
26278;DHT22;14000;52.056;8.510;2023-04-24T04:55:28;10.20;99.90
26278;DHT22;14000;52.056;8.510;2023-04-24T04:57:54;10.10;99.90
26278;DHT22;14000;52.056;8.510;2023-04-24T05:00:21;10.00;99.90
26278;DHT22;14000;52.056;8.510;2023-04-24T05:02:48;10.00;99.90
26278;DHT22;14000;52.056;8.510;2023-04-24T05:05:13;9.90;99.90
26278;DHT22;14000;52.056;8.510;2023-04-24T05:07:39;9.80;99.90
26278;DHT22;14000;52.056;8.510;2023-04-24T05:10:05;9.80;99.90
26278;DHT22;14000;52.056;8.510;2023-04-24T05:12:31;9.70;99.90
26278;DHT22;14000;52.056;8.510;2023-04-24T05:14:56;9.70;99.90
26278;DHT22;14000;52.056;8.510;2023-04-24T05:17:22;9.70;99.90
26278;DHT22;14000;52.056;8.510;2023-04-24T05:19:47;9.70;99.90
26278;DHT22;14000;52.056;8.510;2023-04-24T05:22:13;9.80;99.90
26278;DHT22;14000;52.056;8.510;2023-04-24T05:24:39;9.80;99.90
26278;DHT22;14000;52.056;8.510;2023-04-24T05:27:05;9.80;99.90
26278;DHT22;14000;52.056;8.510;2023-04-24T05:29:31;9.70;99.90
26278;DHT22;14000;52.056;8.510;2023-04-24T05:31:57;9.70;99.90
26278;DHT22;14000;52.056;8.510;2023-04-24T05:34:23;9.70;99.90
26278;DHT22;14000;52.056;8.510;2023-04-24T05:36:48;9.80;99.90
26278;DHT22;14000;52.056;8.510;2023-04-24T05:39:15;9.80;99.90
26278;DHT22;14000;52.056;8.510;2023-04-24T05:41:41;9.70;99.90
26278;DHT22;14000;52.056;8.510;2023-04-24T05:44:06;9.80;99.90
26278;DHT22;14000;52.056;8.510;2023-04-24T05:46:32;9.80;99.90
26278;DHT22;14000;52.056;8.510;2023-04-24T05:48:58;9.80;99.90
26278;DHT22;14000;52.056;8.510;2023-04-24T05:51:23;9.80;99.90
26278;DHT22;14000;52.056;8.510;2023-04-24T05:53:49;9.80;99.90
26278;DHT22;14000;52.056;8.510;2023-04-24T05:56:15;9.80;99.90
26278;DHT22;14000;52.056;8.510;2023-04-24T05:58:41;9.80;99.90
26278;DHT22;14000;52.056;8.510;2023-04-24T06:01:07;9.90;99.90
26278;DHT22;14000;52.056;8.510;2023-04-24T06:03:32;9.90;99.90
26278;DHT22;14000;52.056;8.510;2023-04-24T06:05:58;9.90;99.90
26278;DHT22;14000;52.056;8.510;2023-04-24T06:08:23;9.90;99.90
26278;DHT22;14000;52.056;8.510;2023-04-24T06:10:49;10.00;99.90
26278;DHT22;14000;52.056;8.510;2023-04-24T06:13:15;10.00;99.90
26278;DHT22;14000;52.056;8.510;2023-04-24T06:15:41;10.00;99.90
26278;DHT22;14000;52.056;8.510;2023-04-24T06:18:07;10.00;99.90
26278;DHT22;14000;52.056;8.510;2023-04-24T06:20:35;10.10;99.90
26278;DHT22;14000;52.056;8.510;2023-04-24T06:23:00;10.00;99.90
26278;DHT22;14000;52.056;8.510;2023-04-24T06:25:26;10.00;99.90
26278;DHT22;14000;52.056;8.510;2023-04-24T06:27:52;10.00;99.90
26278;DHT22;14000;52.056;8.510;2023-04-24T06:30:18;10.10;99.90
26278;DHT22;14000;52.056;8.510;2023-04-24T06:32:43;10.10;99.90
26278;DHT22;14000;52.056;8.510;2023-04-24T06:35:09;10.10;99.90
26278;DHT22;14000;52.056;8.510;2023-04-24T06:37:35;10.10;99.90
26278;DHT22;14000;52.056;8.510;2023-04-24T06:40:01;10.10;99.90
26278;DHT22;14000;52.056;8.510;2023-04-24T06:42:26;10.10;99.90
26278;DHT22;14000;52.056;8.510;2023-04-24T06:44:53;10.10;99.90
26278;DHT22;14000;52.056;8.510;2023-04-24T06:47:19;10.10;99.90
26278;DHT22;14000;52.056;8.510;2023-04-24T06:49:44;10.00;99.90
26278;DHT22;14000;52.056;8.510;2023-04-24T06:52:10;10.10;99.90
26278;DHT22;14000;52.056;8.510;2023-04-24T06:54:35;10.10;99.90
26278;DHT22;14000;52.056;8.510;2023-04-24T06:57:01;10.00;99.90
26278;DHT22;14000;52.056;8.510;2023-04-24T06:59:28;10.10;99.90
26278;DHT22;14000;52.056;8.510;2023-04-24T07:01:55;10.00;99.90
26278;DHT22;14000;52.056;8.510;2023-04-24T07:04:21;10.00;99.90
26278;DHT22;14000;52.056;8.510;2023-04-24T07:06:47;10.10;99.90
26278;DHT22;14000;52.056;8.510;2023-04-24T07:09:13;10.10;99.90
26278;DHT22;14000;52.056;8.510;2023-04-24T07:11:44;10.00;99.90
26278;DHT22;14000;52.056;8.510;2023-04-24T07:14:10;10.00;99.90
26278;DHT22;14000;52.056;8.510;2023-04-24T07:16:35;10.00;99.90
26278;DHT22;14000;52.056;8.510;2023-04-24T07:19:01;10.00;99.90
26278;DHT22;14000;52.056;8.510;2023-04-24T07:21:26;10.00;99.90
26278;DHT22;14000;52.056;8.510;2023-04-24T07:23:53;10.10;99.90
26278;DHT22;14000;52.056;8.510;2023-04-24T07:26:20;10.10;99.90
26278;DHT22;14000;52.056;8.510;2023-04-24T07:28:46;10.20;99.90
26278;DHT22;14000;52.056;8.510;2023-04-24T07:31:12;10.10;99.90
26278;DHT22;14000;52.056;8.510;2023-04-24T07:33:37;10.20;99.90
26278;DHT22;14000;52.056;8.510;2023-04-24T07:36:03;10.20;99.90
26278;DHT22;14000;52.056;8.510;2023-04-24T07:38:30;10.30;99.90
26278;DHT22;14000;52.056;8.510;2023-04-24T07:40:56;10.30;99.90
26278;DHT22;14000;52.056;8.510;2023-04-24T07:43:22;10.40;99.90
26278;DHT22;14000;52.056;8.510;2023-04-24T07:45:49;10.30;99.90
26278;DHT22;14000;52.056;8.510;2023-04-24T07:48:15;10.40;99.90
26278;DHT22;14000;52.056;8.510;2023-04-24T07:50:42;10.40;99.90
26278;DHT22;14000;52.056;8.510;2023-04-24T07:53:08;10.40;99.90
26278;DHT22;14000;52.056;8.510;2023-04-24T07:55:33;10.40;99.90
26278;DHT22;14000;52.056;8.510;2023-04-24T07:57:59;10.40;99.90
26278;DHT22;14000;52.056;8.510;2023-04-24T08:00:24;10.40;99.90
26278;DHT22;14000;52.056;8.510;2023-04-24T08:02:50;10.40;99.90
26278;DHT22;14000;52.056;8.510;2023-04-24T08:05:16;10.40;99.90
26278;DHT22;14000;52.056;8.510;2023-04-24T08:07:41;10.30;99.90
26278;DHT22;14000;52.056;8.510;2023-04-24T08:10:11;10.30;99.90
26278;DHT22;14000;52.056;8.510;2023-04-24T08:12:37;10.20;99.90
26278;DHT22;14000;52.056;8.510;2023-04-24T08:15:04;10.20;99.90
26278;DHT22;14000;52.056;8.510;2023-04-24T08:17:29;10.20;99.90
26278;DHT22;14000;52.056;8.510;2023-04-24T08:19:55;10.20;99.90
26278;DHT22;14000;52.056;8.510;2023-04-24T08:22:27;10.30;99.90
26278;DHT22;14000;52.056;8.510;2023-04-24T08:24:52;10.40;99.90
26278;DHT22;14000;52.056;8.510;2023-04-24T08:27:18;10.40;99.90
26278;DHT22;14000;52.056;8.510;2023-04-24T08:29:44;10.40;99.90
26278;DHT22;14000;52.056;8.510;2023-04-24T08:32:09;10.30;99.90
26278;DHT22;14000;52.056;8.510;2023-04-24T08:34:35;10.30;99.90
26278;DHT22;14000;52.056;8.510;2023-04-24T08:37:00;10.40;99.90
26278;DHT22;14000;52.056;8.510;2023-04-24T08:39:26;10.30;99.90
26278;DHT22;14000;52.056;8.510;2023-04-24T08:41:52;10.30;99.90
26278;DHT22;14000;52.056;8.510;2023-04-24T08:44:19;10.40;99.90
26278;DHT22;14000;52.056;8.510;2023-04-24T08:46:48;10.50;99.90
26278;DHT22;14000;52.056;8.510;2023-04-24T08:49:14;10.70;99.90
26278;DHT22;14000;52.056;8.510;2023-04-24T08:51:44;10.80;99.90
26278;DHT22;14000;52.056;8.510;2023-04-24T08:54:11;10.90;99.90
26278;DHT22;14000;52.056;8.510;2023-04-24T08:56:37;11.00;99.90
26278;DHT22;14000;52.056;8.510;2023-04-24T08:59:08;10.90;99.90
26278;DHT22;14000;52.056;8.510;2023-04-24T09:01:34;10.80;99.90
26278;DHT22;14000;52.056;8.510;2023-04-24T09:04:03;10.70;99.90
26278;DHT22;14000;52.056;8.510;2023-04-24T09:06:30;10.60;99.90
26278;DHT22;14000;52.056;8.510;2023-04-24T09:09:00;10.60;99.90
26278;DHT22;14000;52.056;8.510;2023-04-24T09:11:26;10.60;99.90
26278;DHT22;14000;52.056;8.510;2023-04-24T09:13:54;10.50;99.90
26278;DHT22;14000;52.056;8.510;2023-04-24T09:16:20;10.40;99.90
26278;DHT22;14000;52.056;8.510;2023-04-24T09:18:46;10.30;99.90
26278;DHT22;14000;52.056;8.510;2023-04-24T09:21:12;10.20;99.90
26278;DHT22;14000;52.056;8.510;2023-04-24T09:23:38;10.20;99.90
26278;DHT22;14000;52.056;8.510;2023-04-24T09:26:04;10.20;99.90
26278;DHT22;14000;52.056;8.510;2023-04-24T09:28:39;10.40;99.90
26278;DHT22;14000;52.056;8.510;2023-04-24T09:31:12;10.40;99.90
26278;DHT22;14000;52.056;8.510;2023-04-24T09:33:40;10.40;99.90
26278;DHT22;14000;52.056;8.510;2023-04-24T09:36:06;10.50;99.90
26278;DHT22;14000;52.056;8.510;2023-04-24T09:38:37;10.40;99.90
26278;DHT22;14000;52.056;8.510;2023-04-24T09:41:08;10.30;99.90
26278;DHT22;14000;52.056;8.510;2023-04-24T09:43:34;10.30;99.90
26278;DHT22;14000;52.056;8.510;2023-04-24T09:46:07;10.20;99.90
26278;DHT22;14000;52.056;8.510;2023-04-24T09:48:36;10.20;99.90
26278;DHT22;14000;52.056;8.510;2023-04-24T09:51:04;10.20;99.90
26278;DHT22;14000;52.056;8.510;2023-04-24T09:53:32;10.20;99.90
26278;DHT22;14000;52.056;8.510;2023-04-24T09:56:16;10.20;99.90
26278;DHT22;14000;52.056;8.510;2023-04-24T09:58:41;10.10;99.90
26278;DHT22;14000;52.056;8.510;2023-04-24T10:01:07;10.00;99.90
26278;DHT22;14000;52.056;8.510;2023-04-24T10:03:33;9.90;99.90
26278;DHT22;14000;52.056;8.510;2023-04-24T10:06:00;9.80;99.90
26278;DHT22;14000;52.056;8.510;2023-04-24T10:08:26;9.70;99.90
26278;DHT22;14000;52.056;8.510;2023-04-24T10:10:58;9.70;99.90
26278;DHT22;14000;52.056;8.510;2023-04-24T10:13:25;9.70;99.90
26278;DHT22;14000;52.056;8.510;2023-04-24T10:15:51;9.70;99.90
26278;DHT22;14000;52.056;8.510;2023-04-24T10:18:17;9.70;99.90
26278;DHT22;14000;52.056;8.510;2023-04-24T10:20:43;9.70;99.90
26278;DHT22;14000;52.056;8.510;2023-04-24T10:23:09;9.70;99.90
26278;DHT22;14000;52.056;8.510;2023-04-24T10:25:36;9.70;99.90
26278;DHT22;14000;52.056;8.510;2023-04-24T10:28:05;9.90;99.90
26278;DHT22;14000;52.056;8.510;2023-04-24T10:30:33;10.00;99.90
26278;DHT22;14000;52.056;8.510;2023-04-24T10:33:07;10.30;99.90
26278;DHT22;14000;52.056;8.510;2023-04-24T10:35:37;10.20;99.90
26278;DHT22;14000;52.056;8.510;2023-04-24T10:38:11;10.20;99.90
26278;DHT22;14000;52.056;8.510;2023-04-24T10:40:37;10.20;99.90
26278;DHT22;14000;52.056;8.510;2023-04-24T10:43:07;10.10;99.90
26278;DHT22;14000;52.056;8.510;2023-04-24T10:45:35;9.80;99.90
26278;DHT22;14000;52.056;8.510;2023-04-24T10:48:05;9.70;99.90
26278;DHT22;14000;52.056;8.510;2023-04-24T10:51:05;9.60;99.90
26278;DHT22;14000;52.056;8.510;2023-04-24T10:53:31;9.60;99.90
26278;DHT22;14000;52.056;8.510;2023-04-24T10:56:05;9.50;99.90
26278;DHT22;14000;52.056;8.510;2023-04-24T11:01:03;9.50;99.90
26278;DHT22;14000;52.056;8.510;2023-04-24T11:03:32;9.50;99.90
26278;DHT22;14000;52.056;8.510;2023-04-24T11:08:26;9.30;99.90
26278;DHT22;14000;52.056;8.510;2023-04-24T11:11:03;9.20;99.90
26278;DHT22;14000;52.056;8.510;2023-04-24T11:18:59;9.10;99.90
26278;DHT22;14000;52.056;8.510;2023-04-24T11:21:25;9.20;99.90
26278;DHT22;14000;52.056;8.510;2023-04-24T11:23:51;9.30;99.90
26278;DHT22;14000;52.056;8.510;2023-04-24T11:26:19;9.30;99.90
26278;DHT22;14000;52.056;8.510;2023-04-24T11:28:47;9.30;99.90
26278;DHT22;14000;52.056;8.510;2023-04-24T11:31:39;9.30;99.90
26278;DHT22;14000;52.056;8.510;2023-04-24T11:34:12;9.30;99.90
26278;DHT22;14000;52.056;8.510;2023-04-24T11:36:42;9.20;99.90
26278;DHT22;14000;52.056;8.510;2023-04-24T11:39:08;9.10;99.90
26278;DHT22;14000;52.056;8.510;2023-04-24T11:41:34;8.90;99.90
26278;DHT22;14000;52.056;8.510;2023-04-24T11:44:01;8.70;99.90
26278;DHT22;14000;52.056;8.510;2023-04-24T11:46:28;8.50;99.90
26278;DHT22;14000;52.056;8.510;2023-04-24T11:48:55;8.40;99.90
26278;DHT22;14000;52.056;8.510;2023-04-24T11:51:22;8.30;99.90
26278;DHT22;14000;52.056;8.510;2023-04-24T11:53:48;8.10;99.90
26278;DHT22;14000;52.056;8.510;2023-04-24T11:56:17;8.00;99.90
26278;DHT22;14000;52.056;8.510;2023-04-24T11:58:44;7.90;99.90
26278;DHT22;14000;52.056;8.510;2023-04-24T12:01:10;8.00;99.90
26278;DHT22;14000;52.056;8.510;2023-04-24T12:03:35;8.00;99.90
26278;DHT22;14000;52.056;8.510;2023-04-24T12:06:11;8.00;99.90
26278;DHT22;14000;52.056;8.510;2023-04-24T12:08:37;8.00;99.90
26278;DHT22;14000;52.056;8.510;2023-04-24T12:11:04;7.90;99.90
26278;DHT22;14000;52.056;8.510;2023-04-24T12:13:30;8.00;99.90
26278;DHT22;14000;52.056;8.510;2023-04-24T12:16:01;7.90;99.90
26278;DHT22;14000;52.056;8.510;2023-04-24T12:18:27;7.90;99.90
26278;DHT22;14000;52.056;8.510;2023-04-24T12:20:52;7.90;99.90
26278;DHT22;14000;52.056;8.510;2023-04-24T12:23:38;7.90;99.90
26278;DHT22;14000;52.056;8.510;2023-04-24T12:26:04;7.90;99.90
26278;DHT22;14000;52.056;8.510;2023-04-24T12:28:37;7.90;99.90
26278;DHT22;14000;52.056;8.510;2023-04-24T12:31:03;7.80;99.90
26278;DHT22;14000;52.056;8.510;2023-04-24T12:33:33;7.80;99.90
26278;DHT22;14000;52.056;8.510;2023-04-24T12:35:59;7.80;99.90
26278;DHT22;14000;52.056;8.510;2023-04-24T12:38:26;7.80;99.90
26278;DHT22;14000;52.056;8.510;2023-04-24T12:41:03;7.80;99.90
26278;DHT22;14000;52.056;8.510;2023-04-24T12:43:30;7.90;99.90
26278;DHT22;14000;52.056;8.510;2023-04-24T12:45:55;8.00;99.90
26278;DHT22;14000;52.056;8.510;2023-04-24T12:48:22;8.00;99.90
26278;DHT22;14000;52.056;8.510;2023-04-24T12:50:48;8.00;99.90
26278;DHT22;14000;52.056;8.510;2023-04-24T12:53:14;8.10;99.90
26278;DHT22;14000;52.056;8.510;2023-04-24T12:55:41;8.10;99.90
26278;DHT22;14000;52.056;8.510;2023-04-24T12:58:07;8.10;99.90
26278;DHT22;14000;52.056;8.510;2023-04-24T13:00:33;8.10;99.90
26278;DHT22;14000;52.056;8.510;2023-04-24T13:02:58;8.10;99.90
26278;DHT22;14000;52.056;8.510;2023-04-24T13:05:24;8.10;99.90
26278;DHT22;14000;52.056;8.510;2023-04-24T13:07:50;8.10;99.90
26278;DHT22;14000;52.056;8.510;2023-04-24T13:10:15;8.10;99.90
26278;DHT22;14000;52.056;8.510;2023-04-24T13:12:41;8.10;99.90
26278;DHT22;14000;52.056;8.510;2023-04-24T13:15:10;8.10;99.90
26278;DHT22;14000;52.056;8.510;2023-04-24T13:17:36;8.10;99.90
26278;DHT22;14000;52.056;8.510;2023-04-24T13:20:01;8.10;99.90
26278;DHT22;14000;52.056;8.510;2023-04-24T13:22:28;8.10;99.90
26278;DHT22;14000;52.056;8.510;2023-04-24T13:24:53;8.00;99.90
26278;DHT22;14000;52.056;8.510;2023-04-24T13:27:20;8.00;99.90
26278;DHT22;14000;52.056;8.510;2023-04-24T13:29:45;8.00;99.90
26278;DHT22;14000;52.056;8.510;2023-04-24T13:32:11;8.00;99.90
26278;DHT22;14000;52.056;8.510;2023-04-24T13:34:37;7.90;99.90
26278;DHT22;14000;52.056;8.510;2023-04-24T13:37:03;7.90;99.90
26278;DHT22;14000;52.056;8.510;2023-04-24T13:39:29;8.00;99.90
26278;DHT22;14000;52.056;8.510;2023-04-24T13:41:55;8.00;99.90
26278;DHT22;14000;52.056;8.510;2023-04-24T13:44:21;8.00;99.90
26278;DHT22;14000;52.056;8.510;2023-04-24T13:46:49;7.80;99.90
26278;DHT22;14000;52.056;8.510;2023-04-24T13:49:15;7.80;99.90
26278;DHT22;14000;52.056;8.510;2023-04-24T13:51:42;7.80;99.90
26278;DHT22;14000;52.056;8.510;2023-04-24T13:54:08;7.90;99.90
26278;DHT22;14000;52.056;8.510;2023-04-24T13:56:34;8.00;99.90
26278;DHT22;14000;52.056;8.510;2023-04-24T13:58:59;8.00;99.90
26278;DHT22;14000;52.056;8.510;2023-04-24T14:01:25;8.00;99.90
26278;DHT22;14000;52.056;8.510;2023-04-24T14:03:52;8.10;99.90
26278;DHT22;14000;52.056;8.510;2023-04-24T14:06:19;8.10;99.90
26278;DHT22;14000;52.056;8.510;2023-04-24T14:08:45;8.10;99.90
26278;DHT22;14000;52.056;8.510;2023-04-24T14:11:11;8.20;99.90
26278;DHT22;14000;52.056;8.510;2023-04-24T14:13:37;8.20;99.90
26278;DHT22;14000;52.056;8.510;2023-04-24T14:16:05;8.30;99.90
26278;DHT22;14000;52.056;8.510;2023-04-24T14:18:31;8.40;99.90
26278;DHT22;14000;52.056;8.510;2023-04-24T14:20:57;8.50;99.90
26278;DHT22;14000;52.056;8.510;2023-04-24T14:23:22;8.80;99.90
26278;DHT22;14000;52.056;8.510;2023-04-24T14:25:48;8.90;99.90
26278;DHT22;14000;52.056;8.510;2023-04-24T14:28:17;9.00;99.90
26278;DHT22;14000;52.056;8.510;2023-04-24T14:30:43;8.90;99.90
26278;DHT22;14000;52.056;8.510;2023-04-24T14:33:09;8.90;99.90
26278;DHT22;14000;52.056;8.510;2023-04-24T14:35:36;8.80;99.90
26278;DHT22;14000;52.056;8.510;2023-04-24T14:38:01;8.80;99.90
26278;DHT22;14000;52.056;8.510;2023-04-24T14:40:27;8.70;99.90
26278;DHT22;14000;52.056;8.510;2023-04-24T14:42:53;8.70;99.90
26278;DHT22;14000;52.056;8.510;2023-04-24T14:45:19;8.70;99.90
26278;DHT22;14000;52.056;8.510;2023-04-24T14:47:45;8.70;99.90
26278;DHT22;14000;52.056;8.510;2023-04-24T14:50:11;8.70;99.90
26278;DHT22;14000;52.056;8.510;2023-04-24T14:52:38;8.60;99.90
26278;DHT22;14000;52.056;8.510;2023-04-24T14:55:04;8.60;99.90
26278;DHT22;14000;52.056;8.510;2023-04-24T14:57:29;8.60;99.90
26278;DHT22;14000;52.056;8.510;2023-04-24T14:59:55;8.60;99.90
26278;DHT22;14000;52.056;8.510;2023-04-24T15:02:21;8.60;99.90
26278;DHT22;14000;52.056;8.510;2023-04-24T15:04:46;8.60;99.90
26278;DHT22;14000;52.056;8.510;2023-04-24T15:07:12;8.60;99.90
26278;DHT22;14000;52.056;8.510;2023-04-24T15:09:37;8.60;99.90
26278;DHT22;14000;52.056;8.510;2023-04-24T15:12:03;8.60;99.90
26278;DHT22;14000;52.056;8.510;2023-04-24T15:14:29;8.70;99.90
26278;DHT22;14000;52.056;8.510;2023-04-24T15:16:54;8.80;99.90
26278;DHT22;14000;52.056;8.510;2023-04-24T15:19:20;8.80;99.90
26278;DHT22;14000;52.056;8.510;2023-04-24T15:21:46;8.80;99.90
26278;DHT22;14000;52.056;8.510;2023-04-24T15:24:11;8.70;99.90
26278;DHT22;14000;52.056;8.510;2023-04-24T15:26:37;8.70;99.90
26278;DHT22;14000;52.056;8.510;2023-04-24T15:29:02;8.70;99.90
26278;DHT22;14000;52.056;8.510;2023-04-24T15:31:28;8.70;99.90
26278;DHT22;14000;52.056;8.510;2023-04-24T15:33:53;8.70;99.90
26278;DHT22;14000;52.056;8.510;2023-04-24T15:36:19;8.70;99.90
26278;DHT22;14000;52.056;8.510;2023-04-24T15:38:46;8.60;99.90
26278;DHT22;14000;52.056;8.510;2023-04-24T15:41:12;8.50;99.90
26278;DHT22;14000;52.056;8.510;2023-04-24T15:43:38;8.60;99.90